WZZ3KQ LIMJ-LHBP
Flight info
| Callsign | WZZ3KQ |
|---|---|
| Flight time | 1h 35m |
| Altitude | 36000 |
| Route | GEN DCT GOLAS DCT KALIK DCT LURUT DCT CHI DCT BARPI DCT KOPRY DCT ULZAK |
| Aircraft | A320/M-SDE1E2E3FGIJ1J4RWXY/LB1 |
Departure
| Time | 2026-05-08 20:35 |
|---|---|
| Airport | Genoa Cristoforo Colombo Airport (LIMJ) |
Arrival
| Time | 2026-05-08 22:10 |
|---|---|
| Airport | Budapest Liszt Ferenc International Airport (LHBP) |
| Time | Latitude | Longitude | Altitude | Speed | Heading |
|---|---|---|---|---|---|
| 2026-05-08 20:02 | 44.41432 | 8.84951 | 20 ft | 0 kts | 59° |
| 2026-05-08 20:24 | 44.41431 | 8.84950 | 20 ft | 2 kts | 59° |
| 2026-05-08 20:24 | 44.41423 | 8.84930 | 20 ft | 2 kts | 59° |
| 2026-05-08 20:24 | 44.41415 | 8.84910 | 20 ft | 2 kts | 59° |
| 2026-05-08 20:25 | 44.41407 | 8.84891 | 20 ft | 2 kts | 59° |
| 2026-05-08 20:25 | 44.41402 | 8.84880 | 21 ft | 1 kts | 59° |
| 2026-05-08 20:25 | 44.41398 | 8.84870 | 23 ft | 1 kts | 60° |
| 2026-05-08 20:25 | 44.41394 | 8.84860 | 22 ft | 1 kts | 60° |
| 2026-05-08 20:26 | 44.41390 | 8.84851 | 21 ft | 1 kts | 60° |
| 2026-05-08 20:26 | 44.41386 | 8.84841 | 22 ft | 1 kts | 60° |
| 2026-05-08 20:26 | 44.41382 | 8.84831 | 22 ft | 1 kts | 68° |
| 2026-05-08 20:26 | 44.41379 | 8.84821 | 22 ft | 1 kts | 78° |
| 2026-05-08 20:27 | 44.41378 | 8.84810 | 21 ft | 1 kts | 88° |
| 2026-05-08 20:27 | 44.41377 | 8.84803 | 22 ft | 0 kts | 94° |
| 2026-05-08 20:29 | 44.41377 | 8.84809 | 21 ft | 2 kts | 96° |
| 2026-05-08 20:29 | 44.41373 | 8.84834 | 21 ft | 4 kts | 102° |
| 2026-05-08 20:30 | 44.41361 | 8.84876 | 20 ft | 6 kts | 123° |
| 2026-05-08 20:30 | 44.41349 | 8.84934 | 20 ft | 7 kts | 93° |
| 2026-05-08 20:30 | 44.41347 | 8.84971 | 20 ft | 2 kts | 95° |
| 2026-05-08 20:30 | 44.41344 | 8.84997 | 20 ft | 4 kts | 101° |
| 2026-05-08 20:31 | 44.41337 | 8.85044 | 20 ft | 6 kts | 104° |
| 2026-05-08 20:31 | 44.41330 | 8.85078 | 20 ft | 1 kts | 104° |
| 2026-05-08 20:31 | 44.41326 | 8.85101 | 23 ft | 6 kts | 104° |
| 2026-05-08 20:31 | 44.41309 | 8.85192 | 21 ft | 11 kts | 105° |
| 2026-05-08 20:32 | 44.41256 | 8.85275 | 20 ft | 12 kts | 165° |
| 2026-05-08 20:32 | 44.41168 | 8.85259 | 20 ft | 14 kts | 193° |
| 2026-05-08 20:32 | 44.41099 | 8.85232 | 20 ft | 0 kts | 195° |
| 2026-05-08 20:32 | 44.41098 | 8.85232 | 20 ft | 0 kts | 195° |
| 2026-05-08 20:33 | 44.41086 | 8.85227 | 19 ft | 4 kts | 195° |
| 2026-05-08 20:33 | 44.41055 | 8.85192 | 18 ft | 8 kts | 222° |
| 2026-05-08 20:34 | 44.41023 | 8.85115 | 17 ft | 10 kts | 263° |
| 2026-05-08 20:34 | 44.41037 | 8.84996 | 19 ft | 27 kts | 284° |
| 2026-05-08 20:34 | 44.41367 | 8.83316 | 21 ft | 143 kts | 282° |
| 2026-05-08 20:35 | 44.41666 | 8.81841 | 280 ft | 160 kts | 289° |
| 2026-05-08 20:35 | 44.41967 | 8.80366 | 792 ft | 159 kts | 287° |
| 2026-05-08 20:35 | 44.42244 | 8.78863 | 1371 ft | 159 kts | 286° |
| 2026-05-08 20:35 | 44.42278 | 8.77290 | 1857 ft | 170 kts | 255° |
| 2026-05-08 20:36 | 44.41667 | 8.75811 | 2271 ft | 185 kts | 224° |
| 2026-05-08 20:36 | 44.40518 | 8.74929 | 2734 ft | 196 kts | 191° |
| 2026-05-08 20:36 | 44.39173 | 8.75059 | 3336 ft | 197 kts | 157° |
| 2026-05-08 20:36 | 44.37953 | 8.75939 | 3937 ft | 199 kts | 150° |
| 2026-05-08 20:37 | 44.36738 | 8.76866 | 4574 ft | 199 kts | 151° |
| 2026-05-08 20:37 | 44.35528 | 8.77826 | 5171 ft | 203 kts | 144° |
| 2026-05-08 20:37 | 44.34631 | 8.79392 | 5600 ft | 217 kts | 111° |
| 2026-05-08 20:37 | 44.34522 | 8.81544 | 5999 ft | 234 kts | 75° |
| 2026-05-08 20:38 | 44.35132 | 8.83734 | 6504 ft | 251 kts | 68° |
| 2026-05-08 20:38 | 44.35835 | 8.86057 | 6992 ft | 268 kts | 68° |
| 2026-05-08 20:38 | 44.36583 | 8.88529 | 7568 ft | 281 kts | 68° |
| 2026-05-08 20:38 | 44.37349 | 8.91066 | 8347 ft | 286 kts | 67° |
| 2026-05-08 20:39 | 44.38125 | 8.93649 | 9163 ft | 289 kts | 67° |
| 2026-05-08 20:39 | 44.38903 | 8.96257 | 9971 ft | 293 kts | 67° |
| 2026-05-08 20:39 | 44.39697 | 8.98934 | 10480 ft | 306 kts | 67° |
| 2026-05-08 20:39 | 44.40522 | 9.01723 | 10845 ft | 323 kts | 67° |
| 2026-05-08 20:40 | 44.41399 | 9.04691 | 11239 ft | 337 kts | 67° |
| 2026-05-08 20:40 | 44.42231 | 9.07778 | 11857 ft | 342 kts | 75° |
| 2026-05-08 20:40 | 44.42625 | 9.11077 | 12554 ft | 346 kts | 85° |
| 2026-05-08 20:40 | 44.42812 | 9.14455 | 13235 ft | 350 kts | 85° |
| 2026-05-08 20:41 | 44.43006 | 9.17863 | 13906 ft | 354 kts | 85° |
| 2026-05-08 20:41 | 44.43209 | 9.21307 | 14511 ft | 357 kts | 85° |
| 2026-05-08 20:41 | 44.43416 | 9.24783 | 15106 ft | 361 kts | 85° |
| 2026-05-08 20:41 | 44.43622 | 9.28303 | 15684 ft | 364 kts | 85° |
| 2026-05-08 20:42 | 44.43825 | 9.31847 | 16279 ft | 368 kts | 85° |
| 2026-05-08 20:42 | 44.44029 | 9.35434 | 16868 ft | 371 kts | 85° |
| 2026-05-08 20:42 | 44.44233 | 9.39050 | 17462 ft | 374 kts | 85° |
| 2026-05-08 20:42 | 44.44438 | 9.42694 | 18057 ft | 377 kts | 85° |
| 2026-05-08 20:43 | 44.44642 | 9.46367 | 18598 ft | 381 kts | 85° |
| 2026-05-08 20:43 | 44.44850 | 9.50075 | 19110 ft | 385 kts | 85° |
| 2026-05-08 20:43 | 44.45061 | 9.53839 | 19643 ft | 388 kts | 85° |
| 2026-05-08 20:43 | 44.45268 | 9.57627 | 20168 ft | 392 kts | 85° |
| 2026-05-08 20:44 | 44.45475 | 9.61440 | 20693 ft | 396 kts | 85° |
| 2026-05-08 20:44 | 44.45691 | 9.65302 | 21194 ft | 399 kts | 85° |
| 2026-05-08 20:44 | 44.45917 | 9.69188 | 21705 ft | 403 kts | 84° |
| 2026-05-08 20:44 | 44.46150 | 9.73114 | 22179 ft | 406 kts | 84° |
| 2026-05-08 20:45 | 44.46385 | 9.77075 | 22673 ft | 410 kts | 84° |
| 2026-05-08 20:45 | 44.46540 | 9.79719 | 23000 ft | 413 kts | 84° |
| 2026-05-08 20:45 | 44.46850 | 9.85103 | 23651 ft | 418 kts | 85° |
| 2026-05-08 20:45 | 44.47076 | 9.89172 | 24037 ft | 421 kts | 85° |
| 2026-05-08 20:46 | 44.47296 | 9.93284 | 24415 ft | 425 kts | 85° |
| 2026-05-08 20:46 | 44.47512 | 9.97428 | 24785 ft | 429 kts | 85° |
| 2026-05-08 20:46 | 44.47726 | 10.01609 | 25152 ft | 432 kts | 85° |
| 2026-05-08 20:46 | 44.47940 | 10.05826 | 25508 ft | 436 kts | 85° |
| 2026-05-08 20:47 | 44.48156 | 10.10073 | 25856 ft | 439 kts | 85° |
| 2026-05-08 20:47 | 44.48374 | 10.14353 | 26215 ft | 443 kts | 85° |
| 2026-05-08 20:47 | 44.48595 | 10.18669 | 26562 ft | 446 kts | 85° |
| 2026-05-08 20:47 | 44.48816 | 10.23029 | 26893 ft | 450 kts | 85° |
| 2026-05-08 20:48 | 44.49037 | 10.27412 | 27213 ft | 453 kts | 85° |
| 2026-05-08 20:48 | 44.49261 | 10.31833 | 27523 ft | 456 kts | 85° |
| 2026-05-08 20:48 | 44.49481 | 10.36278 | 27832 ft | 460 kts | 85° |
| 2026-05-08 20:48 | 44.49700 | 10.40755 | 28153 ft | 463 kts | 85° |
| 2026-05-08 20:49 | 44.49918 | 10.45275 | 28471 ft | 467 kts | 85° |
| 2026-05-08 20:49 | 44.50135 | 10.49830 | 28782 ft | 470 kts | 85° |
| 2026-05-08 20:49 | 44.50354 | 10.54416 | 29088 ft | 474 kts | 85° |
| 2026-05-08 20:49 | 44.50571 | 10.59040 | 29390 ft | 477 kts | 85° |
| 2026-05-08 20:50 | 44.50787 | 10.63688 | 29686 ft | 480 kts | 85° |
| 2026-05-08 20:50 | 44.51005 | 10.68382 | 29978 ft | 484 kts | 85° |
| 2026-05-08 20:50 | 44.51222 | 10.73032 | 30249 ft | 487 kts | 85° |
| 2026-05-08 20:50 | 44.51444 | 10.77853 | 30504 ft | 490 kts | 85° |
| 2026-05-08 20:51 | 44.51662 | 10.82628 | 30761 ft | 493 kts | 85° |
| 2026-05-08 20:51 | 44.51877 | 10.87415 | 31010 ft | 495 kts | 85° |
| 2026-05-08 20:51 | 44.52105 | 10.92231 | 31355 ft | 494 kts | 82° |
| 2026-05-08 20:51 | 44.52714 | 10.96948 | 31746 ft | 490 kts | 72° |
| 2026-05-08 20:52 | 44.53852 | 11.01416 | 32105 ft | 486 kts | 62° |
| 2026-05-08 20:52 | 44.55466 | 11.05558 | 32446 ft | 482 kts | 54° |
| 2026-05-08 20:52 | 44.57187 | 11.09520 | 32769 ft | 483 kts | 54° |
| 2026-05-08 20:52 | 44.58918 | 11.13534 | 33113 ft | 483 kts | 55° |
| 2026-05-08 20:53 | 44.60653 | 11.17578 | 33473 ft | 483 kts | 55° |
| 2026-05-08 20:53 | 44.62380 | 11.21621 | 33839 ft | 483 kts | 55° |
| 2026-05-08 20:53 | 44.64098 | 11.25654 | 34190 ft | 482 kts | 55° |
| 2026-05-08 20:53 | 44.65824 | 11.29709 | 34502 ft | 482 kts | 55° |
| 2026-05-08 20:54 | 44.67541 | 11.33742 | 34822 ft | 481 kts | 55° |
| 2026-05-08 20:54 | 44.69260 | 11.37776 | 35137 ft | 480 kts | 55° |
| 2026-05-08 20:54 | 44.70972 | 11.41798 | 35444 ft | 480 kts | 55° |
| 2026-05-08 20:54 | 44.72682 | 11.45824 | 35741 ft | 479 kts | 56° |
| 2026-05-08 20:55 | 44.74385 | 11.49841 | 36012 ft | 479 kts | 56° |
| 2026-05-08 20:55 | 44.77793 | 11.57897 | 36107 ft | 479 kts | 56° |
| 2026-05-08 20:56 | 44.81187 | 11.65946 | 36104 ft | 478 kts | 56° |
| 2026-05-08 20:56 | 44.84577 | 11.74009 | 36098 ft | 478 kts | 56° |
| 2026-05-08 20:57 | 44.87966 | 11.82080 | 36093 ft | 478 kts | 56° |
| 2026-05-08 20:57 | 44.91348 | 11.90151 | 36090 ft | 478 kts | 56° |
| 2026-05-08 20:58 | 44.94724 | 11.98246 | 36089 ft | 478 kts | 56° |
| 2026-05-08 20:58 | 44.98089 | 12.06348 | 36086 ft | 478 kts | 56° |
| 2026-05-08 20:59 | 45.01455 | 12.14457 | 36086 ft | 478 kts | 56° |
| 2026-05-08 20:59 | 45.04813 | 12.22563 | 36090 ft | 478 kts | 56° |
| 2026-05-08 21:00 | 45.07894 | 12.30908 | 36089 ft | 482 kts | 66° |
| 2026-05-08 21:00 | 45.10313 | 12.39766 | 36086 ft | 482 kts | 66° |
| 2026-05-08 21:01 | 45.12731 | 12.48629 | 36089 ft | 482 kts | 66° |
| 2026-05-08 21:01 | 45.15152 | 12.57484 | 36088 ft | 482 kts | 66° |
| 2026-05-08 21:02 | 45.17561 | 12.66340 | 36088 ft | 481 kts | 66° |
| 2026-05-08 21:02 | 45.19961 | 12.75195 | 36090 ft | 481 kts | 66° |
| 2026-05-08 21:03 | 45.22347 | 12.84050 | 36081 ft | 481 kts | 66° |
| 2026-05-08 21:03 | 45.24725 | 12.92908 | 36082 ft | 480 kts | 66° |
| 2026-05-08 21:04 | 45.27081 | 13.01703 | 36089 ft | 480 kts | 67° |
| 2026-05-08 21:04 | 45.29444 | 13.10556 | 36084 ft | 479 kts | 67° |
| 2026-05-08 21:05 | 45.31800 | 13.19409 | 36083 ft | 479 kts | 67° |
| 2026-05-08 21:05 | 45.34150 | 13.28257 | 36093 ft | 479 kts | 67° |
| 2026-05-08 21:06 | 45.36492 | 13.37120 | 36104 ft | 478 kts | 68° |
| 2026-05-08 21:06 | 45.38440 | 13.44548 | 36110 ft | 478 kts | 68° |
| 2026-05-08 21:07 | 45.41135 | 13.54846 | 36124 ft | 478 kts | 68° |
| 2026-05-08 21:07 | 45.43076 | 13.62271 | 36121 ft | 477 kts | 68° |
| 2026-05-08 21:08 | 45.45383 | 13.71125 | 36119 ft | 477 kts | 68° |
| 2026-05-08 21:08 | 45.47674 | 13.79969 | 36105 ft | 476 kts | 68° |
| 2026-05-08 21:09 | 45.49943 | 13.88756 | 36095 ft | 476 kts | 68° |
| 2026-05-08 21:09 | 45.52216 | 13.97611 | 36096 ft | 476 kts | 69° |
| 2026-05-08 21:10 | 45.54487 | 14.06469 | 36092 ft | 475 kts | 69° |
| 2026-05-08 21:10 | 45.56743 | 14.15311 | 36088 ft | 474 kts | 69° |
| 2026-05-08 21:11 | 45.58991 | 14.24154 | 36090 ft | 474 kts | 69° |
| 2026-05-08 21:11 | 45.61233 | 14.33004 | 36090 ft | 473 kts | 69° |
| 2026-05-08 21:12 | 45.63459 | 14.41828 | 36089 ft | 472 kts | 69° |
| 2026-05-08 21:12 | 45.65675 | 14.50658 | 36091 ft | 472 kts | 70° |
| 2026-05-08 21:13 | 45.67890 | 14.59502 | 36091 ft | 472 kts | 70° |
| 2026-05-08 21:13 | 45.70093 | 14.68325 | 36093 ft | 471 kts | 70° |
| 2026-05-08 21:14 | 45.72289 | 14.77137 | 36091 ft | 470 kts | 70° |
| 2026-05-08 21:14 | 45.74470 | 14.85962 | 36101 ft | 470 kts | 70° |
| 2026-05-08 21:15 | 45.76644 | 14.94784 | 36096 ft | 469 kts | 70° |
| 2026-05-08 21:15 | 45.78806 | 15.03593 | 36092 ft | 469 kts | 71° |
| 2026-05-08 21:16 | 45.80959 | 15.12400 | 36091 ft | 468 kts | 71° |
| 2026-05-08 21:16 | 45.83094 | 15.21161 | 36084 ft | 468 kts | 71° |
| 2026-05-08 21:17 | 45.85245 | 15.30037 | 36085 ft | 468 kts | 71° |
| 2026-05-08 21:17 | 45.87374 | 15.38842 | 36082 ft | 468 kts | 71° |
| 2026-05-08 21:18 | 45.89502 | 15.47672 | 36083 ft | 468 kts | 71° |
| 2026-05-08 21:18 | 45.91607 | 15.56429 | 36084 ft | 467 kts | 71° |
| 2026-05-08 21:19 | 45.93717 | 15.65251 | 36082 ft | 467 kts | 72° |
| 2026-05-08 21:19 | 45.95815 | 15.74082 | 36081 ft | 467 kts | 72° |
| 2026-05-08 21:20 | 45.97907 | 15.82919 | 36088 ft | 467 kts | 72° |
| 2026-05-08 21:20 | 45.99987 | 15.91752 | 36093 ft | 466 kts | 72° |
| 2026-05-08 21:21 | 46.02061 | 16.00587 | 36088 ft | 466 kts | 72° |
| 2026-05-08 21:21 | 46.04134 | 16.09423 | 36082 ft | 466 kts | 72° |
| 2026-05-08 21:22 | 46.06198 | 16.18267 | 36084 ft | 466 kts | 72° |
| 2026-05-08 21:22 | 46.08257 | 16.27116 | 36086 ft | 466 kts | 72° |
| 2026-05-08 21:23 | 46.10309 | 16.35980 | 36082 ft | 466 kts | 73° |
| 2026-05-08 21:23 | 46.12346 | 16.44832 | 36076 ft | 465 kts | 73° |
| 2026-05-08 21:24 | 46.14376 | 16.53697 | 36071 ft | 466 kts | 73° |
| 2026-05-08 21:24 | 46.16399 | 16.62564 | 36078 ft | 466 kts | 73° |
| 2026-05-08 21:25 | 46.18420 | 16.71451 | 36080 ft | 466 kts | 73° |
| 2026-05-08 21:25 | 46.20439 | 16.80322 | 36077 ft | 465 kts | 73° |
| 2026-05-08 21:26 | 46.22441 | 16.89209 | 36079 ft | 466 kts | 73° |
| 2026-05-08 21:26 | 46.24880 | 16.97856 | 36073 ft | 466 kts | 59° |
| 2026-05-08 21:27 | 46.28537 | 17.05593 | 36064 ft | 467 kts | 55° |
| 2026-05-08 21:27 | 46.32252 | 17.13301 | 36065 ft | 467 kts | 55° |
| 2026-05-08 21:28 | 46.35952 | 17.21029 | 36063 ft | 467 kts | 55° |
| 2026-05-08 21:28 | 46.39655 | 17.28759 | 36064 ft | 467 kts | 55° |
| 2026-05-08 21:28 | 46.41506 | 17.32630 | 35937 ft | 468 kts | 55° |
| 2026-05-08 21:29 | 46.43357 | 17.36509 | 35688 ft | 468 kts | 56° |
| 2026-05-08 21:29 | 46.45201 | 17.40387 | 35272 ft | 467 kts | 56° |
| 2026-05-08 21:29 | 46.47009 | 17.44196 | 34799 ft | 464 kts | 56° |
| 2026-05-08 21:29 | 46.48834 | 17.48044 | 34289 ft | 462 kts | 56° |
| 2026-05-08 21:30 | 46.50562 | 17.51690 | 33761 ft | 460 kts | 57° |
| 2026-05-08 21:30 | 46.52366 | 17.55501 | 33244 ft | 456 kts | 56° |
| 2026-05-08 21:30 | 46.54152 | 17.59271 | 32731 ft | 452 kts | 56° |
| 2026-05-08 21:30 | 46.55931 | 17.63037 | 32213 ft | 449 kts | 56° |
| 2026-05-08 21:31 | 46.57687 | 17.66760 | 31708 ft | 445 kts | 56° |
| 2026-05-08 21:31 | 46.59433 | 17.70464 | 31204 ft | 442 kts | 56° |
| 2026-05-08 21:31 | 46.61166 | 17.74142 | 30710 ft | 439 kts | 56° |
| 2026-05-08 21:31 | 46.62880 | 17.77789 | 30220 ft | 436 kts | 56° |
| 2026-05-08 21:32 | 46.64585 | 17.81423 | 29692 ft | 433 kts | 56° |
| 2026-05-08 21:32 | 46.66271 | 17.85028 | 29226 ft | 428 kts | 56° |
| 2026-05-08 21:32 | 46.67938 | 17.88596 | 28772 ft | 424 kts | 56° |
| 2026-05-08 21:32 | 46.69588 | 17.92126 | 28316 ft | 421 kts | 56° |
| 2026-05-08 21:33 | 46.71232 | 17.95640 | 27876 ft | 417 kts | 56° |
| 2026-05-08 21:33 | 46.72860 | 17.99125 | 27443 ft | 415 kts | 56° |
| 2026-05-08 21:33 | 46.74481 | 18.02598 | 27021 ft | 413 kts | 56° |
| 2026-05-08 21:33 | 46.76089 | 18.06051 | 26601 ft | 411 kts | 56° |
| 2026-05-08 21:34 | 46.77694 | 18.09497 | 26168 ft | 410 kts | 57° |
| 2026-05-08 21:34 | 46.79291 | 18.12929 | 25732 ft | 408 kts | 57° |
| 2026-05-08 21:34 | 46.80881 | 18.16356 | 25299 ft | 407 kts | 57° |
| 2026-05-08 21:34 | 46.82459 | 18.19771 | 24846 ft | 406 kts | 57° |
| 2026-05-08 21:35 | 46.84038 | 18.23193 | 24391 ft | 405 kts | 57° |
| 2026-05-08 21:35 | 46.85608 | 18.26605 | 23923 ft | 405 kts | 57° |
| 2026-05-08 21:35 | 46.87181 | 18.30024 | 23416 ft | 405 kts | 57° |
| 2026-05-08 21:35 | 46.88746 | 18.33424 | 22922 ft | 403 kts | 57° |
| 2026-05-08 21:36 | 46.90304 | 18.36809 | 22452 ft | 400 kts | 57° |
| 2026-05-08 21:36 | 46.91849 | 18.40172 | 21969 ft | 397 kts | 57° |
| 2026-05-08 21:36 | 46.93384 | 18.43513 | 21486 ft | 394 kts | 57° |
| 2026-05-08 21:36 | 46.94905 | 18.46828 | 21014 ft | 391 kts | 57° |
| 2026-05-08 21:37 | 46.96413 | 18.50118 | 20542 ft | 388 kts | 57° |
| 2026-05-08 21:37 | 46.97915 | 18.53395 | 20087 ft | 385 kts | 56° |
| 2026-05-08 21:37 | 46.99620 | 18.56381 | 19625 ft | 381 kts | 43° |
| 2026-05-08 21:37 | 47.01707 | 18.58739 | 19167 ft | 377 kts | 30° |
| 2026-05-08 21:38 | 47.03943 | 18.60701 | 18709 ft | 374 kts | 30° |
| 2026-05-08 21:38 | 47.06175 | 18.62671 | 18239 ft | 372 kts | 30° |
| 2026-05-08 21:38 | 47.08370 | 18.64618 | 17771 ft | 367 kts | 30° |
| 2026-05-08 21:38 | 47.10547 | 18.66556 | 17295 ft | 364 kts | 30° |
| 2026-05-08 21:39 | 47.12694 | 18.68474 | 16864 ft | 359 kts | 30° |
| 2026-05-08 21:39 | 47.14818 | 18.70374 | 16421 ft | 356 kts | 31° |
| 2026-05-08 21:39 | 47.16718 | 18.72663 | 15973 ft | 353 kts | 48° |
| 2026-05-08 21:39 | 47.18094 | 18.75633 | 15528 ft | 351 kts | 64° |
| 2026-05-08 21:40 | 47.18850 | 18.79011 | 15078 ft | 348 kts | 81° |
| 2026-05-08 21:40 | 47.18998 | 18.82546 | 14641 ft | 345 kts | 90° |
| 2026-05-08 21:40 | 47.19018 | 18.86046 | 14199 ft | 343 kts | 90° |
| 2026-05-08 21:41 | 47.19073 | 18.93038 | 13294 ft | 339 kts | 90° |
| 2026-05-08 21:41 | 47.19111 | 18.96462 | 13076 ft | 329 kts | 87° |
| 2026-05-08 21:41 | 47.19511 | 18.99656 | 12956 ft | 317 kts | 71° |
| 2026-05-08 21:41 | 47.20422 | 19.02477 | 12728 ft | 310 kts | 56° |
| 2026-05-08 21:42 | 47.21816 | 19.04875 | 12541 ft | 299 kts | 41° |
| 2026-05-08 21:42 | 47.23319 | 19.06847 | 12410 ft | 290 kts | 41° |
| 2026-05-08 21:42 | 47.24797 | 19.08807 | 12217 ft | 283 kts | 41° |
| 2026-05-08 21:42 | 47.26270 | 19.10772 | 11913 ft | 280 kts | 41° |
| 2026-05-08 21:43 | 47.27689 | 19.12674 | 11615 ft | 278 kts | 41° |
| 2026-05-08 21:43 | 47.29118 | 19.14590 | 11259 ft | 279 kts | 41° |
| 2026-05-08 21:43 | 47.30558 | 19.16517 | 10853 ft | 281 kts | 41° |
| 2026-05-08 21:43 | 47.31923 | 19.18566 | 10433 ft | 280 kts | 57° |
| 2026-05-08 21:44 | 47.32556 | 19.21201 | 10026 ft | 270 kts | 88° |
| 2026-05-08 21:44 | 47.32237 | 19.23866 | 9589 ft | 266 kts | 116° |
| 2026-05-08 21:44 | 47.31152 | 19.26046 | 9136 ft | 265 kts | 133° |
| 2026-05-08 21:44 | 47.29912 | 19.28035 | 8702 ft | 263 kts | 133° |
| 2026-05-08 21:45 | 47.28680 | 19.30012 | 8264 ft | 261 kts | 132° |
| 2026-05-08 21:45 | 47.27456 | 19.31973 | 7831 ft | 259 kts | 132° |
| 2026-05-08 21:45 | 47.26239 | 19.33921 | 7405 ft | 257 kts | 132° |
| 2026-05-08 21:45 | 47.25033 | 19.35854 | 6960 ft | 256 kts | 132° |
| 2026-05-08 21:46 | 47.23839 | 19.37770 | 6469 ft | 253 kts | 132° |
| 2026-05-08 21:46 | 47.22653 | 19.39677 | 5951 ft | 251 kts | 132° |
| 2026-05-08 21:46 | 47.21477 | 19.41560 | 5450 ft | 250 kts | 132° |
| 2026-05-08 21:46 | 47.20366 | 19.43537 | 5039 ft | 249 kts | 118° |
| 2026-05-08 21:47 | 47.19838 | 19.45855 | 4917 ft | 236 kts | 94° |
| 2026-05-08 21:47 | 47.20008 | 19.48185 | 4800 ft | 223 kts | 69° |
| 2026-05-08 21:47 | 47.20761 | 19.50104 | 4665 ft | 212 kts | 46° |
| 2026-05-08 21:47 | 47.21895 | 19.51379 | 4534 ft | 201 kts | 25° |
| 2026-05-08 21:48 | 47.23196 | 19.51931 | 4437 ft | 189 kts | 5° |
| 2026-05-08 21:48 | 47.24471 | 19.51811 | 4311 ft | 181 kts | 346° |
| 2026-05-08 21:48 | 47.25666 | 19.51367 | 4175 ft | 174 kts | 346° |
| 2026-05-08 21:48 | 47.26816 | 19.50946 | 4049 ft | 167 kts | 346° |
| 2026-05-08 21:49 | 47.27927 | 19.50541 | 3920 ft | 162 kts | 346° |
| 2026-05-08 21:49 | 47.28989 | 19.50091 | 3801 ft | 157 kts | 337° |
| 2026-05-08 21:49 | 47.29846 | 19.49165 | 3670 ft | 152 kts | 316° |
| 2026-05-08 21:49 | 47.30604 | 19.48073 | 3480 ft | 153 kts | 315° |
| 2026-05-08 21:50 | 47.31342 | 19.46949 | 3304 ft | 152 kts | 314° |
| 2026-05-08 21:50 | 47.32057 | 19.45828 | 3075 ft | 150 kts | 314° |
| 2026-05-08 21:50 | 47.32769 | 19.44697 | 2824 ft | 150 kts | 314° |
| 2026-05-08 21:50 | 47.33464 | 19.43588 | 2570 ft | 148 kts | 314° |
| 2026-05-08 21:51 | 47.34161 | 19.42471 | 2515 ft | 146 kts | 314° |
| 2026-05-08 21:51 | 47.34831 | 19.41396 | 2495 ft | 141 kts | 314° |
| 2026-05-08 21:51 | 47.35495 | 19.40331 | 2370 ft | 141 kts | 314° |
| 2026-05-08 21:51 | 47.36154 | 19.39272 | 2212 ft | 140 kts | 314° |
| 2026-05-08 21:52 | 47.36810 | 19.38218 | 2033 ft | 139 kts | 314° |
| 2026-05-08 21:52 | 47.37459 | 19.37175 | 1860 ft | 138 kts | 314° |
| 2026-05-08 21:52 | 47.38107 | 19.36133 | 1695 ft | 137 kts | 314° |
| 2026-05-08 21:52 | 47.38750 | 19.35098 | 1489 ft | 137 kts | 314° |
| 2026-05-08 21:53 | 47.39183 | 19.34401 | 1370 ft | 137 kts | 314° |
| 2026-05-08 21:53 | 47.39822 | 19.33372 | 1181 ft | 137 kts | 314° |
| 2026-05-08 21:53 | 47.40459 | 19.32345 | 1002 ft | 136 kts | 314° |
| 2026-05-08 21:53 | 47.41102 | 19.31308 | 820 ft | 136 kts | 313° |
| 2026-05-08 21:54 | 47.41740 | 19.30272 | 632 ft | 135 kts | 313° |
| 2026-05-08 21:54 | 47.42373 | 19.29242 | 438 ft | 135 kts | 313° |
| 2026-05-08 21:54 | 47.42968 | 19.28313 | 615 ft | 128 kts | 315° |
| 2026-05-08 21:54 | 47.43621 | 19.27293 | 1114 ft | 144 kts | 314° |
| 2026-05-08 21:55 | 47.44336 | 19.26145 | 1763 ft | 150 kts | 315° |
| 2026-05-08 21:55 | 47.45056 | 19.24981 | 2242 ft | 158 kts | 314° |
| 2026-05-08 21:55 | 47.45818 | 19.23743 | 2502 ft | 176 kts | 314° |
| 2026-05-08 21:56 | 47.47775 | 19.21162 | 2933 ft | 207 kts | 342° |
| 2026-05-08 21:56 | 47.49202 | 19.21069 | 2995 ft | 208 kts | 18° |
| 2026-05-08 21:56 | 47.50400 | 19.22225 | 3012 ft | 210 kts | 53° |
| 2026-05-08 21:56 | 47.50977 | 19.24199 | 3014 ft | 212 kts | 78° |
| 2026-05-08 21:57 | 47.51035 | 19.26363 | 3004 ft | 213 kts | 102° |
| 2026-05-08 21:57 | 47.50364 | 19.28296 | 3014 ft | 215 kts | 130° |
| 2026-05-08 21:57 | 47.49330 | 19.29891 | 3009 ft | 215 kts | 135° |
| 2026-05-08 21:57 | 47.48239 | 19.31417 | 3009 ft | 216 kts | 136° |
| 2026-05-08 21:58 | 47.47235 | 19.33053 | 3010 ft | 215 kts | 127° |
| 2026-05-08 21:58 | 47.46312 | 19.34791 | 3010 ft | 214 kts | 126° |
| 2026-05-08 21:58 | 47.45405 | 19.36542 | 3010 ft | 214 kts | 126° |
| 2026-05-08 21:58 | 47.44510 | 19.38280 | 3010 ft | 214 kts | 126° |
| 2026-05-08 21:59 | 47.43611 | 19.40031 | 3010 ft | 214 kts | 126° |
| 2026-05-08 21:59 | 47.42707 | 19.41770 | 2794 ft | 212 kts | 130° |
| 2026-05-08 21:59 | 47.41542 | 19.42997 | 2511 ft | 200 kts | 160° |
| 2026-05-08 21:59 | 47.40187 | 19.43254 | 2514 ft | 199 kts | 188° |
| 2026-05-08 22:00 | 47.38850 | 19.42698 | 2518 ft | 200 kts | 201° |
| 2026-05-08 22:00 | 47.37736 | 19.41592 | 2528 ft | 184 kts | 231° |
| 2026-05-08 22:00 | 47.37182 | 19.40043 | 2525 ft | 162 kts | 254° |
| 2026-05-08 22:00 | 47.36983 | 19.38486 | 2395 ft | 147 kts | 276° |
| 2026-05-08 22:01 | 47.37323 | 19.37163 | 2449 ft | 140 kts | 310° |
| 2026-05-08 22:01 | 47.37941 | 19.36165 | 2483 ft | 140 kts | 317° |
| 2026-05-08 22:01 | 47.38762 | 19.35360 | 2451 ft | 138 kts | 351° |
| 2026-05-08 22:01 | 47.39738 | 19.35520 | 2434 ft | 148 kts | 16° |
| 2026-05-08 22:02 | 47.40786 | 19.36008 | 2571 ft | 166 kts | 19° |
| 2026-05-08 22:02 | 47.41865 | 19.36597 | 2898 ft | 166 kts | 22° |
| 2026-05-08 22:02 | 47.42849 | 19.37618 | 2971 ft | 187 kts | 51° |
| 2026-05-08 22:02 | 47.43393 | 19.39492 | 2976 ft | 210 kts | 84° |
| 2026-05-08 22:03 | 47.43109 | 19.41583 | 2999 ft | 212 kts | 119° |
| 2026-05-08 22:03 | 47.42167 | 19.43263 | 3012 ft | 214 kts | 134° |
| 2026-05-08 22:03 | 47.41098 | 19.44788 | 3011 ft | 213 kts | 136° |
| 2026-05-08 22:03 | 47.40019 | 19.46286 | 3016 ft | 213 kts | 136° |
| 2026-05-08 22:04 | 47.38937 | 19.47784 | 3014 ft | 213 kts | 136° |
| 2026-05-08 22:04 | 47.37855 | 19.49285 | 3010 ft | 213 kts | 136° |
| 2026-05-08 22:04 | 47.36775 | 19.50782 | 3008 ft | 213 kts | 136° |
| 2026-05-08 22:04 | 47.35609 | 19.52113 | 3000 ft | 208 kts | 155° |
| 2026-05-08 22:05 | 47.34258 | 19.52529 | 3008 ft | 198 kts | 183° |
| 2026-05-08 22:05 | 47.32943 | 19.51985 | 3008 ft | 198 kts | 210° |
| 2026-05-08 22:05 | 47.31945 | 19.50652 | 3008 ft | 198 kts | 238° |
| 2026-05-08 22:05 | 47.31492 | 19.48763 | 3009 ft | 197 kts | 267° |
| 2026-05-08 22:06 | 47.31689 | 19.46846 | 3019 ft | 182 kts | 294° |
| 2026-05-08 22:06 | 47.32356 | 19.45376 | 3017 ft | 166 kts | 313° |
| 2026-05-08 22:06 | 47.33107 | 19.44165 | 2973 ft | 156 kts | 314° |
| 2026-05-08 22:06 | 47.33832 | 19.43002 | 2841 ft | 153 kts | 314° |
| 2026-05-08 22:07 | 47.34551 | 19.41850 | 2675 ft | 152 kts | 314° |
| 2026-05-08 22:07 | 47.35255 | 19.40718 | 2480 ft | 148 kts | 314° |
| 2026-05-08 22:07 | 47.35949 | 19.39605 | 2291 ft | 147 kts | 314° |
| 2026-05-08 22:07 | 47.36618 | 19.38525 | 2170 ft | 139 kts | 314° |
| 2026-05-08 22:08 | 47.37266 | 19.37484 | 1953 ft | 137 kts | 314° |
| 2026-05-08 22:08 | 47.37910 | 19.36449 | 1755 ft | 136 kts | 315° |
| 2026-05-08 22:08 | 47.38538 | 19.35439 | 1555 ft | 136 kts | 314° |
| 2026-05-08 22:08 | 47.39177 | 19.34411 | 1380 ft | 136 kts | 314° |
| 2026-05-08 22:09 | 47.39812 | 19.33389 | 1184 ft | 135 kts | 314° |
| 2026-05-08 22:09 | 47.40442 | 19.32372 | 1005 ft | 135 kts | 313° |
| 2026-05-08 22:09 | 47.41075 | 19.31354 | 820 ft | 134 kts | 314° |
| 2026-05-08 22:09 | 47.41702 | 19.30343 | 646 ft | 134 kts | 313° |
| 2026-05-08 22:10 | 47.42326 | 19.29336 | 469 ft | 133 kts | 313° |
| 2026-05-08 22:10 | 47.42901 | 19.28403 | 444 ft | 104 kts | 312° |
| 2026-05-08 22:10 | 47.43221 | 19.27888 | 451 ft | 38 kts | 312° |
| 2026-05-08 22:10 | 47.43331 | 19.27626 | 453 ft | 14 kts | 292° |
| 2026-05-08 22:11 | 47.43366 | 19.27457 | 447 ft | 16 kts | 280° |
| 2026-05-08 22:11 | 47.43378 | 19.27354 | 436 ft | 14 kts | 282° |
| 2026-05-08 22:11 | 47.43404 | 19.27190 | 429 ft | 19 kts | 280° |
| 2026-05-08 22:11 | 47.43426 | 19.27044 | 430 ft | 9 kts | 285° |
| 2026-05-08 22:12 | 47.43460 | 19.26954 | 426 ft | 11 kts | 305° |
| 2026-05-08 22:12 | 47.43517 | 19.26856 | 430 ft | 14 kts | 313° |
| 2026-05-08 22:12 | 47.43589 | 19.26737 | 437 ft | 17 kts | 311° |
| 2026-05-08 22:12 | 47.43665 | 19.26616 | 437 ft | 11 kts | 312° |
| 2026-05-08 22:13 | 47.43722 | 19.26522 | 422 ft | 14 kts | 312° |
| 2026-05-08 22:13 | 47.43728 | 19.26398 | 436 ft | 14 kts | 236° |
| 2026-05-08 22:13 | 47.43720 | 19.26382 | 436 ft | 3 kts | 231° |
| 2026-05-08 22:13 | 47.43700 | 19.26351 | 430 ft | 6 kts | 224° |
| 2026-05-08 22:14 | 47.43663 | 19.26301 | 436 ft | 9 kts | 222° |
| 2026-05-08 22:14 | 47.43611 | 19.26232 | 428 ft | 11 kts | 222° |
| 2026-05-08 22:14 | 47.43599 | 19.26215 | 436 ft | 5 kts | 222° |
| 2026-05-08 22:14 | 47.43565 | 19.26170 | 421 ft | 8 kts | 222° |
| 2026-05-08 22:15 | 47.43522 | 19.26113 | 429 ft | 0 kts | 222° |
| 2026-05-08 22:15 | 47.43513 | 19.26100 | 432 ft | 4 kts | 222° |
| 2026-05-08 22:15 | 47.43484 | 19.26065 | 431 ft | 6 kts | 213° |
| 2026-05-08 22:15 | 47.43444 | 19.26083 | 436 ft | 7 kts | 143° |
| 2026-05-08 22:16 | 47.43417 | 19.26126 | 428 ft | 1 kts | 133° |
| 2026-05-08 22:16 | 47.43414 | 19.26129 | 429 ft | 0 kts | 133° |